Time;durP1;ratioP1;P1;durP2;ratioP2;P2;SDS_P1;SDS_P2;PMS_P1;PMS_P2;Temp;Humidity;BMP_temperature;BMP_pressure;BME280_temperature;BME280_humidity;BME280_pressure;Samples;Min_cycle;Max_cycle;Signal;HPM_P1;HPM_P2
2021/09/22 00:00:34;;;;;;;11.30;3.70;;;;;;;9.89;88.40;101039.70;112555;1200;22431;-59
2021/09/22 00:03:05;;;;;;;12.50;3.70;;;;;;;9.89;88.51;101036.00;112595;1200;25013;-61
2021/09/22 00:06:02;;;;;;;12.30;4.00;;;;;;;9.90;88.65;101032.33;112597;1200;22813;-59
2021/09/22 00:08:39;;;;;;;11.30;3.50;;;;;;;9.92;88.60;101031.84;112707;1193;22432;-60
2021/09/22 00:11:10;;;;;;;13.90;3.40;;;;;;;9.94;88.63;101028.05;112698;1200;22453;-59
2021/09/22 00:13:42;;;;;;;12.50;3.60;;;;;;;9.96;88.59;101022.61;112849;1200;24869;-61
2021/09/22 00:16:17;;;;;;;13.10;3.60;;;;;;;9.98;88.52;101020.54;112594;1200;25155;-60
2021/09/22 00:18:52;;;;;;;13.20;3.40;;;;;;;10.00;88.47;101021.58;112552;1187;24203;-59
2021/09/22 00:21:23;;;;;;;12.70;3.20;;;;;;;10.02;88.41;101022.95;112776;1200;23524;-59
2021/09/22 00:23:54;;;;;;;10.80;3.60;;;;;;;10.03;88.51;101016.70;112568;1192;22422;-59
2021/09/22 00:26:25;;;;;;;12.70;3.70;;;;;;;10.04;88.60;101010.90;112599;1200;23715;-59
2021/09/22 00:28:57;;;;;;;12.40;3.40;;;;;;;10.05;88.53;101014.39;112659;1200;25026;-57
2021/09/22 00:31:29;;;;;;;13.70;4.10;;;;;;;10.04;88.62;101011.05;112875;1200;23472;-58
2021/09/22 00:34:02;;;;;;;11.50;3.70;;;;;;;10.05;88.73;101008.33;112590;1200;26371;-59
2021/09/22 00:36:34;;;;;;;14.80;4.20;;;;;;;10.06;88.86;101003.99;112797;1200;22424;-60
2021/09/22 00:39:06;;;;;;;10.30;3.90;;;;;;;10.06;88.77;101006.66;112553;1200;22442;-59
2021/09/22 00:41:37;;;;;;;13.20;4.10;;;;;;;10.07;88.80;101001.56;112602;1200;25028;-59
2021/09/22 00:44:11;;;;;;;13.50;4.70;;;;;;;10.07;88.81;100996.30;112583;1192;22441;-57
2021/09/22 00:46:42;;;;;;;15.60;4.70;;;;;;;10.07;89.02;100989.03;112576;1193;22455;-61
2021/09/22 00:49:13;;;;;;;11.60;4.00;;;;;;;10.07;88.92;100984.72;112595;1200;22442;-61
2021/09/22 00:51:44;;;;;;;13.40;4.70;;;;;;;10.07;88.98;100982.15;112593;1200;24091;-59
2021/09/22 00:54:17;;;;;;;14.10;4.40;;;;;;;10.09;88.94;100978.67;112589;1193;22466;-58
2021/09/22 00:56:49;;;;;;;15.90;5.40;;;;;;;10.09;89.00;100980.52;112824;1199;22444;-59
2021/09/22 00:59:20;;;;;;;17.30;6.20;;;;;;;10.08;88.99;100971.70;112802;1200;22419;-60
2021/09/22 01:01:53;;;;;;;15.10;5.50;;;;;;;10.07;89.13;100966.72;112571;1200;22453;-58
2021/09/22 01:04:25;;;;;;;14.20;5.10;;;;;;;10.07;89.12;100962.81;112641;1200;22452;-58
2021/09/22 01:06:56;;;;;;;16.10;5.40;;;;;;;10.08;89.20;100964.20;112635;1200;26104;-61
2021/09/22 01:09:30;;;;;;;15.10;4.60;;;;;;;10.08;89.19;100959.89;112673;1192;22446;-60
2021/09/22 01:12:01;;;;;;;16.80;6.40;;;;;;;10.08;89.21;100951.75;112735;1200;22459;-58
2021/09/22 01:14:32;;;;;;;14.00;5.20;;;;;;;10.08;89.01;100948.95;112723;1193;24056;-59
2021/09/22 01:17:03;;;;;;;14.80;5.50;;;;;;;10.09;89.25;100945.13;112570;1200;22457;-60
2021/09/22 01:19:34;;;;;;;17.10;6.80;;;;;;;10.10;89.23;100942.30;112740;1200;25165;-57
2021/09/22 01:22:06;;;;;;;15.80;6.00;;;;;;;10.10;89.35;100943.48;112770;1193;26196;-59
2021/09/22 01:24:37;;;;;;;15.70;5.70;;;;;;;10.12;89.26;100941.03;112675;1193;25142;-60
2021/09/22 01:27:08;;;;;;;15.80;5.20;;;;;;;10.12;89.26;100937.59;112798;1199;22442;-61
2021/09/22 01:29:42;;;;;;;17.30;5.40;;;;;;;10.12;89.18;100936.23;112552;1200;22539;-60
2021/09/22 01:32:15;;;;;;;16.40;6.20;;;;;;;10.13;89.18;100936.54;112559;1200;25317;-59
2021/09/22 01:34:46;;;;;;;16.30;5.70;;;;;;;10.13;89.21;100933.44;112695;1200;25127;-59
2021/09/22 01:37:17;;;;;;;15.90;6.40;;;;;;;10.12;89.22;100929.07;112498;1201;24109;-59
2021/09/22 01:39:48;;;;;;;15.80;5.20;;;;;;;10.12;89.29;100923.88;112572;1200;24096;-60
2021/09/22 01:42:19;;;;;;;19.50;6.60;;;;;;;10.13;89.28;100922.88;112562;1193;25146;-59
2021/09/22 01:44:52;;;;;;;15.20;5.30;;;;;;;10.15;89.34;100919.33;112535;1200;22439;-61
2021/09/22 01:47:23;;;;;;;17.20;5.80;;;;;;;10.16;89.48;100916.56;112708;1200;22428;-62
2021/09/22 01:50:01;;;;;;;17.30;6.30;;;;;;;10.15;89.44;100915.39;113026;1193;26400;-60
2021/09/22 01:52:34;;;;;;;15.50;6.10;;;;;;;10.15;89.31;100909.09;112986;1193;22779;-60
2021/09/22 01:55:07;;;;;;;15.80;6.10;;;;;;;10.17;89.48;100904.16;112811;1200;25234;-59
2021/09/22 01:57:38;;;;;;;18.90;6.60;;;;;;;10.15;89.49;100899.14;112768;1199;24079;-58
2021/09/22 02:00:10;;;;;;;17.90;6.00;;;;;;;10.15;89.58;100898.73;112895;1200;22455;-59
2021/09/22 02:02:41;;;;;;;17.60;6.30;;;;;;;10.17;89.49;100899.08;112597;1193;25015;-60
2021/09/22 02:05:13;;;;;;;16.90;5.70;;;;;;;10.18;89.57;100900.20;112700;1200;25026;-59
2021/09/22 02:07:43;;;;;;;19.20;5.70;;;;;;;10.19;89.44;100895.40;112686;1200;24203;-62
2021/09/22 02:10:14;;;;;;;20.50;7.60;;;;;;;10.19;89.64;100897.29;112525;1193;22415;-61
2021/09/22 02:12:50;;;;;;;19.20;5.90;;;;;;;10.20;89.62;100893.85;112601;1193;22943;-61
2021/09/22 02:15:21;;;;;;;17.20;6.00;;;;;;;10.18;89.70;100891.98;112558;1200;22766;-59
2021/09/22 02:17:52;;;;;;;16.20;6.10;;;;;;;10.17;89.66;100886.77;112546;1200;24994;-62
2021/09/22 02:20:24;;;;;;;18.70;7.70;;;;;;;10.17;89.75;100883.98;112728;1200;22450;-62
2021/09/22 02:22:55;;;;;;;19.80;7.90;;;;;;;10.18;89.64;100878.63;112590;1200;22442;-59
2021/09/22 02:25:26;;;;;;;18.40;7.30;;;;;;;10.19;89.83;100883.13;112928;1200;22442;-60
2021/09/22 02:27:59;;;;;;;19.90;8.00;;;;;;;10.18;89.77;100884.27;112711;1200;25060;-59
2021/09/22 02:30:29;;;;;;;21.80;8.10;;;;;;;10.17;89.74;100877.04;112774;1200;22470;-59
2021/09/22 02:33:01;;;;;;;20.50;7.70;;;;;;;10.17;89.84;100874.27;112783;1200;22443;-58
2021/09/22 02:35:32;;;;;;;19.00;8.10;;;;;;;10.16;89.79;100870.09;112832;1200;22449;-58
2021/09/22 02:38:03;;;;;;;17.80;7.10;;;;;;;10.17;89.87;100867.98;112679;1200;23282;-59
2021/09/22 02:40:40;;;;;;;19.20;7.70;;;;;;;10.17;89.94;100872.36;112496;1200;24193;-62
2021/09/22 02:43:11;;;;;;;20.80;8.70;;;;;;;10.17;89.94;100869.73;112613;1200;24130;-59
2021/09/22 02:45:42;;;;;;;22.80;8.60;;;;;;;10.16;89.98;100867.30;112509;1200;25138;-59
2021/09/22 02:48:14;;;;;;;22.30;8.30;;;;;;;10.15;90.12;100869.16;112691;1200;22536;-58
2021/09/22 02:50:48;;;;;;;21.50;7.60;;;;;;;10.15;90.11;100863.52;112520;1193;22465;-58
2021/09/22 02:53:20;;;;;;;19.80;7.90;;;;;;;10.14;90.12;100861.93;112540;1193;23173;-58
2021/09/22 02:55:51;;;;;;;20.80;7.90;;;;;;;10.15;90.12;100864.56;112764;1200;25029;-56
2021/09/22 02:58:22;;;;;;;22.20;9.10;;;;;;;10.16;90.25;100862.94;112516;1200;22599;-59
2021/09/22 03:00:55;;;;;;;20.00;8.10;;;;;;;10.17;90.28;100857.76;112601;1193;24049;-56
2021/09/22 03:03:28;;;;;;;22.40;8.60;;;;;;;10.20;90.36;100859.25;112631;1200;22562;-58
2021/09/22 03:06:01;;;;;;;19.80;8.50;;;;;;;10.21;90.36;100855.45;112740;1200;22532;-58
2021/09/22 03:08:31;;;;;;;20.30;8.70;;;;;;;10.22;90.31;100860.24;112518;1185;24056;-57
2021/09/22 03:11:06;;;;;;;22.60;9.40;;;;;;;10.23;90.31;100861.89;112576;1200;27083;-60
2021/09/22 03:13:39;;;;;;;22.90;8.90;;;;;;;10.25;90.42;100862.52;112521;1200;22641;-58
2021/09/22 03:16:10;;;;;;;20.70;8.00;;;;;;;10.26;90.31;100855.79;112570;1200;25209;-57
2021/09/22 03:18:41;;;;;;;22.90;8.50;;;;;;;10.26;90.23;100854.17;112609;1193;24079;-58
2021/09/22 03:21:12;;;;;;;19.90;8.10;;;;;;;10.25;90.21;100852.00;112669;1193;24267;-58
2021/09/22 03:23:43;;;;;;;21.00;8.50;;;;;;;10.24;90.30;100854.27;112520;1200;22429;-57
2021/09/22 03:26:14;;;;;;;19.70;7.70;;;;;;;10.25;90.38;100858.15;112605;1200;25070;-55
2021/09/22 03:28:47;;;;;;;20.10;8.30;;;;;;;10.24;90.48;100858.33;112552;1200;22443;-58
2021/09/22 03:31:19;;;;;;;19.40;8.30;;;;;;;10.24;90.54;100857.70;112667;1200;22558;-58
2021/09/22 03:33:50;;;;;;;21.60;8.90;;;;;;;10.25;90.47;100854.83;112572;1193;22418;-57
2021/09/22 03:36:21;;;;;;;22.30;8.10;;;;;;;10.25;90.58;100853.83;112622;1200;25138;-59
2021/09/22 03:38:54;;;;;;;19.70;8.20;;;;;;;10.25;90.54;100855.60;112520;1200;24997;-58
2021/09/22 03:41:24;;;;;;;17.20;7.60;;;;;;;10.25;90.63;100851.84;112567;1200;22444;-56
2021/09/22 03:43:55;;;;;;;19.00;8.20;;;;;;;10.25;90.59;100853.61;112505;1200;22446;-56
2021/09/22 03:46:29;;;;;;;18.10;7.50;;;;;;;10.24;90.71;100861.92;112522;1200;25029;-57
2021/09/22 03:49:00;;;;;;;18.10;6.70;;;;;;;10.24;90.70;100866.17;112803;1200;22578;-55
2021/09/22 03:51:31;;;;;;;19.70;7.60;;;;;;;10.25;90.68;100869.15;112569;1200;22433;-57
2021/09/22 03:54:03;;;;;;;16.50;6.40;;;;;;;10.28;90.71;100865.92;112521;1200;22557;-57
2021/09/22 03:56:34;;;;;;;18.10;7.00;;;;;;;10.29;90.75;100871.05;112536;1200;22452;-56
2021/09/22 03:59:05;;;;;;;20.50;7.20;;;;;;;10.31;90.80;100867.31;112578;1200;25252;-56
2021/09/22 04:01:36;;;;;;;17.40;5.50;;;;;;;10.31;90.85;100866.59;112653;1200;25015;-59
2021/09/22 04:04:10;;;;;;;18.00;6.10;;;;;;;10.32;90.54;100872.36;112875;1200;25107;-55
2021/09/22 04:06:41;;;;;;;15.90;5.60;;;;;;;10.33;90.58;100880.13;112802;1193;22472;-58
2021/09/22 04:09:14;;;;;;;13.30;5.00;;;;;;;10.34;90.59;100872.99;112757;1200;25139;-58
2021/09/22 04:11:45;;;;;;;15.00;4.80;;;;;;;10.36;90.54;100872.38;112771;1200;22442;-58
2021/09/22 04:14:17;;;;;;;15.10;4.20;;;;;;;10.35;90.37;100875.75;112596;1200;22453;-59
2021/09/22 04:16:48;;;;;;;13.90;4.50;;;;;;;10.35;90.44;100875.90;112742;1200;25150;-56
2021/09/22 04:19:19;;;;;;;12.70;3.80;;;;;;;10.36;90.52;100879.54;112647;1193;24055;-58
2021/09/22 04:21:50;;;;;;;11.30;3.50;;;;;;;10.36;90.39;100879.95;112622;1193;24056;-58
2021/09/22 04:24:21;;;;;;;11.90;4.00;;;;;;;10.37;90.36;100881.55;112634;1200;22548;-56
2021/09/22 04:26:52;;;;;;;12.60;3.30;;;;;;;10.37;90.44;100879.32;112627;1193;24197;-59
2021/09/22 04:29:23;;;;;;;12.70;3.70;;;;;;;10.37;90.34;100885.05;112652;1199;22445;-59
2021/09/22 04:31:54;;;;;;;12.70;3.90;;;;;;;10.37;90.35;100885.77;112759;1193;24121;-57
2021/09/22 04:34:25;;;;;;;11.30;3.10;;;;;;;10.37;90.24;100891.45;112533;1200;22443;-60
2021/09/22 04:36:56;;;;;;;9.90;2.80;;;;;;;10.37;90.20;100890.39;112558;1200;22443;-58
2021/09/22 04:39:26;;;;;;;11.90;3.10;;;;;;;10.37;90.21;100897.50;112597;1200;22544;-59
2021/09/22 04:41:57;;;;;;;9.70;2.50;;;;;;;10.38;89.97;100899.08;112591;1199;22552;-57
2021/09/22 04:44:29;;;;;;;6.60;2.30;;;;;;;10.38;89.96;100901.93;112635;1199;24276;-60
2021/09/22 04:47:00;;;;;;;9.40;3.00;;;;;;;10.38;90.13;100909.38;112621;1199;22457;-61
2021/09/22 04:49:31;;;;;;;8.50;2.50;;;;;;;10.38;89.97;100908.31;112986;1199;22440;-61
2021/09/22 04:52:03;;;;;;;8.50;2.40;;;;;;;10.38;90.00;100912.70;113003;1199;25280;-59
2021/09/22 04:54:34;;;;;;;9.80;2.80;;;;;;;10.38;89.83;100915.89;113251;1192;25138;-59
2021/09/22 04:57:06;;;;;;;9.20;2.40;;;;;;;10.38;89.83;100913.26;112829;1200;26296;-59
2021/09/22 04:59:37;;;;;;;9.20;2.50;;;;;;;10.38;89.92;100910.62;112891;1200;24036;-59
2021/09/22 05:02:08;;;;;;;8.60;2.10;;;;;;;10.38;89.82;100916.20;112678;1200;22435;-60
2021/09/22 05:04:42;;;;;;;7.80;2.00;;;;;;;10.40;90.01;100920.29;112624;1200;22457;-59
2021/09/22 05:07:16;;;;;;;6.40;1.80;;;;;;;10.37;89.75;100920.32;112885;1200;22449;-60
2021/09/22 05:09:49;;;;;;;6.00;1.70;;;;;;;10.35;89.82;100924.21;112663;1200;24064;-60
2021/09/22 05:12:22;;;;;;;6.10;1.60;;;;;;;10.34;89.85;100924.20;112643;1192;25246;-59
2021/09/22 05:14:53;;;;;;;16.70;2.30;;;;;;;10.33;89.85;100923.45;112819;1200;22423;-59
2021/09/22 05:17:24;;;;;;;5.80;1.40;;;;;;;10.30;89.78;100924.77;112719;1199;22440;-60
2021/09/22 05:19:55;;;;;;;6.10;1.70;;;;;;;10.27;89.77;100930.77;112524;1193;22443;-60
2021/09/22 05:22:26;;;;;;;6.10;1.80;;;;;;;10.27;90.02;100929.03;112762;1192;22453;-60
2021/09/22 05:24:58;;;;;;;10.40;2.20;;;;;;;10.28;89.94;100931.55;112552;1199;22440;-60
2021/09/22 05:27:29;;;;;;;5.80;1.30;;;;;;;10.27;89.70;100933.19;112568;1200;24101;-59
2021/09/22 05:30:03;;;;;;;7.90;1.80;;;;;;;10.24;89.85;100930.10;112726;1199;22395;-57
2021/09/22 05:32:37;;;;;;;6.30;1.70;;;;;;;10.26;90.15;100926.05;112763;1200;22440;-60
2021/09/22 05:35:10;;;;;;;5.80;1.50;;;;;;;10.27;89.86;100922.00;112689;1200;24885;-60
2021/09/22 05:37:41;;;;;;;7.20;1.70;;;;;;;10.28;89.88;100926.21;112637;1193;24050;-60
2021/09/22 05:40:12;;;;;;;6.70;1.90;;;;;;;10.26;89.72;100923.63;112746;1193;22455;-58
2021/09/22 05:42:43;;;;;;;11.30;3.00;;;;;;;10.27;89.87;100927.60;113402;1184;22430;-62
2021/09/22 05:45:14;;;;;;;8.70;1.90;;;;;;;10.29;89.92;100926.30;112670;1199;23518;-63
2021/09/22 05:47:47;;;;;;;9.50;2.10;;;;;;;10.31;90.00;100930.69;112559;1192;22558;-62
2021/09/22 05:50:18;;;;;;;8.70;2.00;;;;;;;10.31;90.09;100932.36;112775;1199;25083;-62
2021/09/22 05:52:51;;;;;;;7.90;2.10;;;;;;;10.33;89.94;100927.56;112753;1192;24204;-62
2021/09/22 05:55:23;;;;;;;10.30;2.60;;;;;;;10.35;90.02;100927.35;113111;1193;25296;-62
2021/09/22 05:57:55;;;;;;;12.30;2.80;;;;;;;10.37;89.82;100928.06;113034;1200;26419;-62
2021/09/22 06:00:26;;;;;;;11.30;3.20;;;;;;;10.37;89.56;100927.65;113078;1193;22424;-62
2021/09/22 06:02:57;;;;;;;12.40;3.30;;;;;;;10.37;89.66;100933.77;112964;1200;22415;-62
2021/09/22 06:05:30;;;;;;;11.50;2.90;;;;;;;10.38;89.63;100939.58;114237;1199;22424;-62
2021/09/22 06:08:01;;;;;;;8.40;2.30;;;;;;;10.39;89.79;100945.28;112615;1200;22454;-62
2021/09/22 06:10:32;;;;;;;14.10;3.60;;;;;;;10.40;89.55;100950.25;112741;1193;22760;-62
2021/09/22 06:13:05;;;;;;;13.90;4.10;;;;;;;10.40;89.47;100959.67;112668;1200;22439;-62
2021/09/22 06:15:39;;;;;;;16.00;5.00;;;;;;;10.40;89.43;100965.23;112674;1200;22452;-61
2021/09/22 06:18:10;;;;;;;12.60;3.00;;;;;;;10.41;89.29;100976.86;112779;1200;22439;-63
2021/09/22 06:20:43;;;;;;;12.00;3.60;;;;;;;10.43;89.48;100983.16;112902;1200;22440;-62
2021/09/22 06:23:14;;;;;;;12.60;3.40;;;;;;;10.44;89.47;100982.80;113073;1193;24021;-62
2021/09/22 06:25:45;;;;;;;11.30;3.00;;;;;;;10.45;89.42;100980.75;113185;1200;26276;-62
2021/09/22 06:28:16;;;;;;;11.60;2.80;;;;;;;10.46;89.36;100989.63;112769;1193;24025;-62
2021/09/22 06:30:49;;;;;;;12.00;3.40;;;;;;;10.47;89.41;100984.08;112682;1200;22531;-62
2021/09/22 06:33:22;;;;;;;11.00;3.50;;;;;;;10.50;89.51;100984.95;112696;1200;22461;-62
2021/09/22 06:35:59;;;;;;;10.70;3.70;;;;;;;10.51;89.46;100994.45;112676;1200;22440;-62
2021/09/22 06:38:32;;;;;;;15.90;3.70;;;;;;;10.52;89.26;100994.27;112700;1200;25117;-62
2021/09/22 06:41:04;;;;;;;13.50;3.80;;;;;;;10.54;89.50;100990.20;112811;1200;22434;-62
2021/09/22 06:43:39;;;;;;;12.90;2.50;;;;;;;10.55;89.44;100990.46;112764;1200;22448;-62
2021/09/22 06:46:13;;;;;;;12.10;2.60;;;;;;;10.56;89.27;100996.23;112839;1200;25291;-62
2021/09/22 06:48:44;;;;;;;10.30;2.60;;;;;;;10.53;89.08;101010.74;112848;1193;22413;-62
2021/09/22 06:51:18;;;;;;;8.40;1.80;;;;;;;10.51;89.07;101012.26;112668;1200;23221;-62
2021/09/22 06:53:49;;;;;;;9.30;2.50;;;;;;;10.50;89.04;101016.38;112743;1200;24177;-62
2021/09/22 06:56:24;;;;;;;13.40;3.40;;;;;;;10.48;89.16;101014.21;112683;1200;24984;-62
2021/09/22 06:58:56;;;;;;;11.10;3.50;;;;;;;10.48;89.27;101020.68;112894;1200;22909;-62
2021/09/22 07:01:28;;;;;;;10.90;3.60;;;;;;;10.48;89.42;101018.52;112832;1193;24164;-62
2021/09/22 07:03:59;;;;;;;9.80;2.60;;;;;;;10.49;89.49;101021.80;112684;1200;22449;-62
2021/09/22 07:06:30;;;;;;;13.50;3.10;;;;;;;10.50;89.42;101023.64;112815;1193;24182;-62
2021/09/22 07:09:02;;;;;;;11.00;2.80;;;;;;;10.50;89.43;101022.95;112681;1200;25005;-62
2021/09/22 07:11:35;;;;;;;12.60;2.60;;;;;;;10.50;89.32;101023.45;112638;1200;22440;-62
2021/09/22 07:14:06;;;;;;;9.10;2.80;;;;;;;10.50;89.29;101033.59;112926;1200;22459;-62
2021/09/22 07:16:38;;;;;;;10.50;2.80;;;;;;;10.50;89.28;101026.73;112650;1193;24184;-61
2021/09/22 07:19:12;;;;;;;10.30;2.60;;;;;;;10.50;89.28;101032.88;113040;1200;24179;-61
2021/09/22 07:21:44;;;;;;;13.00;3.30;;;;;;;10.51;89.28;101031.06;113483;1200;22385;-61
2021/09/22 07:24:16;;;;;;;14.40;4.00;;;;;;;10.55;89.58;101038.08;113353;1200;24997;-62
2021/09/22 07:26:47;;;;;;;11.30;3.10;;;;;;;10.56;89.45;101036.13;112905;1200;25396;-59
2021/09/22 07:29:18;;;;;;;12.20;3.40;;;;;;;10.59;89.36;101041.94;112840;1185;24055;-61
2021/09/22 07:31:49;;;;;;;12.40;2.50;;;;;;;10.62;89.43;101045.44;112651;1200;22426;-61
2021/09/22 07:34:20;;;;;;;13.30;2.80;;;;;;;10.63;89.35;101044.86;112610;1200;22556;-62
2021/09/22 07:36:52;;;;;;;12.70;2.80;;;;;;;10.67;89.60;101057.83;112807;1200;22447;-62
2021/09/22 07:39:23;;;;;;;12.60;3.20;;;;;;;10.69;89.28;101055.66;112754;1200;22449;-61
2021/09/22 07:41:54;;;;;;;9.80;3.20;;;;;;;10.71;89.41;101055.26;112889;1200;24071;-61
2021/09/22 07:44:25;;;;;;;8.90;3.00;;;;;;;10.75;89.40;101066.91;112791;1200;22458;-61
2021/09/22 07:46:56;;;;;;;10.40;3.40;;;;;;;10.73;88.90;101069.70;112737;1200;25098;-61
2021/09/22 07:49:27;;;;;;;10.80;2.60;;;;;;;10.72;88.93;101073.67;112655;1193;25000;-61
2021/09/22 07:52:01;;;;;;;9.10;3.20;;;;;;;10.72;89.00;101077.70;113022;1200;25044;-62
2021/09/22 07:54:33;;;;;;;12.40;3.20;;;;;;;10.75;89.05;101081.81;112897;1200;24076;-62
2021/09/22 07:57:04;;;;;;;10.70;3.20;;;;;;;10.80;89.12;101082.66;112819;1200;24135;-60
2021/09/22 07:59:39;;;;;;;8.50;2.80;;;;;;;10.86;89.18;101081.61;112687;1193;22459;-62
2021/09/22 08:02:10;;;;;;;9.50;2.90;;;;;;;10.93;89.44;101083.64;112670;1200;22967;-61
2021/09/22 08:04:41;;;;;;;8.00;2.60;;;;;;;11.01;89.04;101090.24;112739;1200;25094;-62
2021/09/22 08:07:12;;;;;;;7.70;2.30;;;;;;;11.09;89.00;101096.01;112697;1200;24387;-62
2021/09/22 08:09:44;;;;;;;10.40;2.30;;;;;;;11.16;89.19;101100.39;112717;1200;22449;-63
2021/09/22 08:12:16;;;;;;;7.80;2.40;;;;;;;11.21;88.70;101108.33;112706;1199;22550;-63
2021/09/22 08:14:47;;;;;;;7.50;2.20;;;;;;;11.26;88.83;101114.38;112689;1193;23303;-61
2021/09/22 08:17:20;;;;;;;8.50;2.00;;;;;;;11.27;88.16;101120.61;112807;1200;25130;-61
2021/09/22 08:19:51;;;;;;;8.10;2.00;;;;;;;11.26;88.01;101115.89;112680;1200;22440;-61
2021/09/22 08:22:22;;;;;;;7.90;2.30;;;;;;;11.28;88.23;101114.90;112654;1200;24117;-61
2021/09/22 08:24:53;;;;;;;6.30;1.90;;;;;;;11.32;88.26;101110.74;113015;1200;24063;-62
2021/09/22 08:27:24;;;;;;;6.70;1.70;;;;;;;11.38;88.24;101111.30;112551;1200;24276;-62
2021/09/22 08:29:55;;;;;;;5.80;1.60;;;;;;;11.45;87.87;101112.23;112627;1200;22494;-61
2021/09/22 08:32:26;;;;;;;5.30;1.20;;;;;;;11.51;87.81;101110.37;112678;1193;26075;-62
2021/09/22 08:34:57;;;;;;;4.20;1.00;;;;;;;11.57;87.35;101113.79;112588;1187;22458;-61
2021/09/22 08:37:30;;;;;;;3.90;1.10;;;;;;;11.57;86.79;101114.31;112608;1193;22425;-62
2021/09/22 08:40:02;;;;;;;4.60;1.20;;;;;;;11.62;87.31;101117.86;112666;1200;22443;-62
2021/09/22 08:42:37;;;;;;;3.30;0.80;;;;;;;11.68;87.13;101118.44;112698;1200;22448;-62
2021/09/22 08:45:11;;;;;;;5.70;1.50;;;;;;;11.74;87.03;101119.14;112602;1200;24080;-62
2021/09/22 08:47:45;;;;;;;5.90;1.30;;;;;;;11.80;87.29;101116.53;112652;1193;22446;-62
2021/09/22 08:50:18;;;;;;;3.60;1.00;;;;;;;11.85;86.49;101118.46;112813;1200;25113;-61
2021/09/22 08:52:50;;;;;;;3.60;1.20;;;;;;;11.86;86.04;101118.83;112679;1200;22547;-61
2021/09/22 08:55:21;;;;;;;3.40;0.90;;;;;;;11.86;85.90;101119.14;112786;1193;22442;-61
2021/09/22 08:57:53;;;;;;;6.70;1.20;;;;;;;11.85;85.62;101122.33;112821;1193;22425;-62
2021/09/22 09:00:24;;;;;;;5.10;1.10;;;;;;;11.85;85.73;101125.59;112931;1177;24063;-62
2021/09/22 09:02:58;;;;;;;3.90;0.90;;;;;;;11.83;85.09;101132.39;112728;1200;22440;-61
2021/09/22 09:05:32;;;;;;;4.10;1.20;;;;;;;11.81;85.15;101135.38;113035;1200;24043;-61
2021/09/22 09:08:08;;;;;;;4.00;1.00;;;;;;;11.83;85.52;101136.00;112607;1200;24217;-60
2021/09/22 09:10:39;;;;;;;5.90;1.50;;;;;;;11.84;85.22;101130.98;112603;1200;22434;-62
2021/09/22 09:13:12;;;;;;;7.50;1.50;;;;;;;11.83;84.62;101136.00;112674;1193;23125;-62
2021/09/22 09:15:47;;;;;;;7.40;1.60;;;;;;;11.81;84.68;101138.08;112708;1200;24704;-61
2021/09/22 09:18:21;;;;;;;6.60;1.60;;;;;;;11.77;84.45;101137.14;112663;1193;22431;-61
2021/09/22 09:20:55;;;;;;;6.30;1.60;;;;;;;11.76;84.64;101143.08;112634;1185;22447;-61
2021/09/22 09:23:26;;;;;;;6.60;1.60;;;;;;;11.77;84.63;101143.35;112875;1194;24065;-61
2021/09/22 09:26:00;;;;;;;4.00;1.10;;;;;;;11.76;84.17;101144.59;112664;1200;22443;-61
2021/09/22 09:28:33;;;;;;;6.40;1.50;;;;;;;11.75;84.13;101146.99;112858;1200;24032;-61
2021/09/22 09:31:07;;;;;;;7.30;1.70;;;;;;;11.73;84.53;101149.13;112861;1200;22492;-60
2021/09/22 09:33:50;;;;;;;5.30;1.70;;;;;;;11.76;84.62;101151.09;112973;1200;24029;-64
2021/09/22 09:36:31;;;;;;;9.00;2.10;;;;;;;11.76;84.28;101153.08;113051;1193;24083;-62
2021/09/22 09:39:09;;;;;;;8.40;2.00;;;;;;;11.77;84.68;101148.42;113013;1200;22455;-62
2021/09/22 09:41:48;;;;;;;8.60;2.40;;;;;;;11.79;84.72;101149.27;112673;1200;22471;-61
2021/09/22 09:44:23;;;;;;;7.50;1.80;;;;;;;11.80;84.43;101148.92;112763;1200;22445;-62
2021/09/22 09:46:57;;;;;;;5.40;1.20;;;;;;;11.78;84.46;101152.90;112693;1200;25042;-61
2021/09/22 09:49:31;;;;;;;6.20;1.40;;;;;;;11.75;84.33;101160.08;112581;1193;22507;-61
2021/09/22 09:52:03;;;;;;;5.20;1.30;;;;;;;11.72;84.38;101160.38;112650;1200;24149;-62
2021/09/22 09:54:36;;;;;;;5.70;1.30;;;;;;;11.72;84.13;101157.97;112763;1200;22443;-61
2021/09/22 09:57:15;;;;;;;8.80;1.40;;;;;;;11.74;83.79;101156.05;112705;1193;24052;-61
2021/09/22 09:59:48;;;;;;;6.60;1.50;;;;;;;11.76;84.09;101163.06;112946;1200;24988;-62
2021/09/22 10:02:32;;;;;;;6.00;1.50;;;;;;;11.80;84.04;101164.71;112850;1193;22469;-62
2021/09/22 10:05:05;;;;;;;6.10;1.20;;;;;;;11.85;83.57;101164.29;112708;1200;24846;-61
2021/09/22 10:07:38;;;;;;;6.30;1.70;;;;;;;11.89;83.59;101163.78;112865;1200;25276;-62
2021/09/22 10:10:12;;;;;;;7.40;1.70;;;;;;;11.96;83.90;101169.08;112719;1200;22445;-61
2021/09/22 10:12:44;;;;;;;7.10;2.10;;;;;;;12.00;83.37;101167.52;112760;1200;22448;-61
2021/09/22 10:15:16;;;;;;;20.90;6.10;;;;;;;12.06;83.36;101169.10;112546;1200;22441;-61
2021/09/22 10:17:49;;;;;;;10.90;2.30;;;;;;;12.15;82.98;101169.41;112826;1192;24052;-61
2021/09/22 10:20:21;;;;;;;8.90;1.80;;;;;;;12.27;83.09;101172.10;112630;1200;22449;-62
2021/09/22 10:22:51;;;;;;;5.80;1.40;;;;;;;12.33;81.64;101170.70;112750;1193;23011;-62
2021/09/22 10:25:26;;;;;;;3.90;1.10;;;;;;;12.35;82.16;101164.54;112662;1200;22749;-61
2021/09/22 10:27:57;;;;;;;4.90;1.20;;;;;;;12.41;82.30;101163.59;112623;1200;25120;-61
2021/09/22 10:30:41;;;;;;;6.70;1.30;;;;;;;12.45;81.06;101167.76;112734;1200;22465;-62
2021/09/22 10:33:28;;;;;;;4.60;1.10;;;;;;;12.46;81.58;101160.96;112821;1200;22522;-61
2021/09/22 10:35:59;;;;;;;5.80;1.40;;;;;;;12.53;80.90;101162.41;112614;1193;22446;-62
2021/09/22 10:38:53;;;;;;;6.30;1.20;;;;;;;12.53;80.61;101161.20;112790;1200;24039;-62
2021/09/22 10:41:34;;;;;;;7.60;1.30;;;;;;;12.55;80.41;101156.88;112702;1193;22445;-63
2021/09/22 10:44:08;;;;;;;6.60;1.40;;;;;;;12.54;80.20;101156.54;112731;1200;24072;-63
2021/09/22 10:46:40;;;;;;;4.10;1.20;;;;;;;12.58;80.76;101152.47;112811;1199;22448;-61
2021/09/22 10:49:17;;;;;;;3.90;1.00;;;;;;;12.70;80.89;101154.91;112571;1193;24774;-61
2021/09/22 10:51:51;;;;;;;4.50;1.00;;;;;;;12.79;79.89;101160.07;112738;1199;25085;-61
2021/09/22 10:54:26;;;;;;;6.50;1.10;;;;;;;12.81;79.22;101159.41;112631;1200;26290;-61
2021/09/22 10:57:04;;;;;;;6.00;1.30;;;;;;;12.84;79.31;101158.23;112809;1200;22758;-62
2021/09/22 10:59:40;;;;;;;6.20;1.50;;;;;;;12.81;78.69;101155.42;112691;1200;22445;-61
2021/09/22 11:02:12;;;;;;;6.10;1.40;;;;;;;12.78;79.64;101161.56;112682;1200;24158;-62
2021/09/22 11:04:58;;;;;;;4.40;1.20;;;;;;;12.81;79.54;101164.95;112659;1200;24147;-62
2021/09/22 11:08:04;;;;;;;7.20;1.30;;;;;;;12.81;79.04;101164.45;113223;1200;22445;-62
2021/09/22 11:10:46;;;;;;;5.20;1.40;;;;;;;12.73;79.15;101160.89;112730;1200;22562;-64
2021/09/22 11:13:43;;;;;;;6.10;1.20;;;;;;;12.69;78.63;101165.92;112858;1200;22451;-61
2021/09/22 11:16:18;;;;;;;4.80;1.00;;;;;;;12.61;78.25;101165.56;112653;1200;22438;-61
2021/09/22 11:18:52;;;;;;;6.10;1.20;;;;;;;12.56;78.20;101159.98;112792;1200;22448;-62
2021/09/22 11:21:24;;;;;;;4.90;1.30;;;;;;;12.53;78.23;101162.83;112880;1200;22443;-62
2021/09/22 11:23:57;;;;;;;4.90;1.00;;;;;;;12.49;77.81;101162.57;112954;1200;22452;-61
2021/09/22 11:26:32;;;;;;;4.30;1.00;;;;;;;12.45;77.67;101163.67;113037;1200;22449;-62
2021/09/22 11:29:03;;;;;;;4.20;1.00;;;;;;;12.41;77.51;101163.38;112922;1193;22445;-63
2021/09/22 11:31:37;;;;;;;4.00;1.00;;;;;;;12.43;77.87;101159.55;112745;1200;24170;-61
2021/09/22 11:34:08;;;;;;;5.00;1.00;;;;;;;12.48;78.33;101161.62;112935;1200;22578;-63
2021/09/22 11:36:40;;;;;;;9.70;1.30;;;;;;;12.55;78.16;101158.02;112896;1200;24060;-63